createdAt,value
2023-12-01T00:00:35.070Z,98513.09
2023-12-01T00:03:01.698Z,98513.09
2023-12-01T00:05:28.239Z,98524.06
2023-12-01T00:07:54.813Z,98533.50
2023-12-01T00:10:22.370Z,98530.09
2023-12-01T00:12:49.036Z,98528.41
2023-12-01T00:15:15.657Z,98520.03
2023-12-01T00:17:42.135Z,98506.38
2023-12-01T00:20:09.277Z,98520.91
2023-12-01T00:22:35.752Z,98537.91
2023-12-01T00:25:02.379Z,98542.16
2023-12-01T00:27:28.962Z,98548.88
2023-12-01T00:29:56.012Z,98552.34
2023-12-01T00:32:22.500Z,98555.81
2023-12-01T00:34:49.041Z,98537.16
2023-12-01T00:37:18.082Z,98545.72
2023-12-01T00:39:44.877Z,98545.56
2023-12-01T00:42:13.905Z,98540.47
2023-12-01T00:44:40.656Z,98559.19
2023-12-01T00:47:07.242Z,98568.69
2023-12-01T00:49:33.752Z,98571.97
2023-12-01T00:52:00.302Z,98577.19
2023-12-01T00:54:26.819Z,98578.94
2023-12-01T00:56:53.312Z,98574.72
2023-12-01T00:59:19.805Z,98569.72
2023-12-01T01:01:46.386Z,98566.34
2023-12-01T01:04:13.292Z,98560.38
2023-12-01T01:06:40.001Z,98556.34
2023-12-01T01:09:06.543Z,98563.09
2023-12-01T01:11:33.073Z,98560.47
2023-12-01T01:14:00.833Z,98567.31
2023-12-01T01:16:27.504Z,98560.53
2023-12-01T01:18:54.045Z,98556.34
2023-12-01T01:21:21.056Z,98560.63
2023-12-01T01:23:47.601Z,98553.88
2023-12-01T01:26:15.254Z,98553.06
2023-12-01T01:28:42.027Z,98563.28
2023-12-01T01:31:08.699Z,98565.00
2023-12-01T01:33:37.289Z,98558.25
2023-12-01T01:36:04.240Z,98559.09
2023-12-01T01:38:30.951Z,98563.38
2023-12-01T01:40:57.653Z,98556.53
2023-12-01T01:43:24.527Z,98552.25
2023-12-01T01:46:15.879Z,98562.38
2023-12-01T01:48:45.318Z,98568.41
2023-12-01T01:51:12.170Z,98567.25
2023-12-01T01:53:42.509Z,98557.19
2023-12-01T01:56:10.704Z,98564.94
2023-12-01T01:58:37.244Z,98565.81
2023-12-01T02:01:04.014Z,98576.78
2023-12-01T02:03:30.677Z,98580.13
2023-12-01T02:05:58.262Z,98569.72
2023-12-01T02:08:26.016Z,98567.09
2023-12-01T02:10:56.817Z,98570.59
2023-12-01T02:13:25.248Z,98565.53
2023-12-01T02:15:54.384Z,98580.09
2023-12-01T02:18:21.075Z,98582.69
2023-12-01T02:20:47.848Z,98579.31
2023-12-01T02:23:14.350Z,98567.41
2023-12-01T02:25:40.861Z,98563.19
2023-12-01T02:28:07.432Z,98557.41
2023-12-01T02:30:34.081Z,98554.91
2023-12-01T02:33:00.715Z,98548.94
2023-12-01T02:35:31.106Z,98562.56
2023-12-01T02:37:58.670Z,98566.88
2023-12-01T02:40:25.520Z,98559.13
2023-12-01T02:42:52.818Z,98563.38
2023-12-01T02:45:20.393Z,98571.88
2023-12-01T02:47:51.133Z,98570.13
2023-12-01T02:50:18.566Z,98576.00
2023-12-01T02:52:45.587Z,98587.81
2023-12-01T02:55:12.888Z,98573.38
2023-12-01T02:57:43.170Z,98568.28
2023-12-01T03:00:14.523Z,98570.75
2023-12-01T03:02:42.289Z,98587.78
2023-12-01T03:05:09.489Z,98587.81
2023-12-01T03:07:40.929Z,98574.16
2023-12-01T03:10:08.804Z,98575.94
2023-12-01T03:12:36.202Z,98566.59
2023-12-01T03:15:06.385Z,98573.38
2023-12-01T03:17:36.416Z,98585.44
2023-12-01T03:20:09.194Z,98593.25
2023-12-01T03:22:35.797Z,98582.19
2023-12-01T03:25:03.523Z,98574.38
2023-12-01T03:27:29.940Z,98578.66
2023-12-01T03:29:56.575Z,98581.13
2023-12-01T03:32:23.175Z,98575.13
2023-12-01T03:34:49.862Z,98580.97
2023-12-01T03:37:16.450Z,98582.63
2023-12-01T03:39:42.954Z,98583.50
2023-12-01T03:42:10.752Z,98581.88
2023-12-01T03:44:37.268Z,98592.16
2023-12-01T03:47:03.940Z,98590.66
2023-12-01T03:49:30.518Z,98584.59
2023-12-01T03:51:57.071Z,98579.56
2023-12-01T03:54:23.584Z,98583.09
2023-12-01T03:56:50.114Z,98579.63
2023-12-01T03:59:16.579Z,98570.22
2023-12-01T04:01:43.213Z,98562.56
2023-12-01T04:04:11.623Z,98553.16
2023-12-01T04:06:39.570Z,98571.19
2023-12-01T04:09:10.384Z,98560.88
2023-12-01T04:11:38.990Z,98554.91
2023-12-01T04:14:06.317Z,98567.72
2023-12-01T04:16:32.853Z,98574.53
2023-12-01T04:18:59.544Z,98568.63
2023-12-01T04:21:26.089Z,98541.56
2023-12-01T04:23:53.644Z,98557.66
2023-12-01T04:26:20.238Z,98551.63
2023-12-01T04:28:46.749Z,98557.50
2023-12-01T04:31:16.768Z,98575.31
2023-12-01T04:33:43.848Z,98573.56
2023-12-01T04:36:12.862Z,98561.75
2023-12-01T04:38:40.226Z,98568.53
2023-12-01T04:41:11.195Z,98567.88
2023-12-01T04:43:41.138Z,98566.94
2023-12-01T04:46:08.129Z,98570.34
2023-12-01T04:48:34.768Z,98567.56
2023-12-01T04:51:01.281Z,98565.84
2023-12-01T04:53:27.867Z,98564.97
2023-12-01T04:55:54.376Z,98568.41
2023-12-01T04:58:21.374Z,98563.19
2023-12-01T05:00:48.025Z,98557.75
2023-12-01T05:03:14.824Z,98557.91
2023-12-01T05:05:42.711Z,98561.34
2023-12-01T05:08:10.670Z,98561.34
2023-12-01T05:10:38.408Z,98551.13
2023-12-01T05:13:06.799Z,98557.72
2023-12-01T05:15:35.367Z,98556.59
2023-12-01T05:18:05.668Z,98562.78
2023-12-01T05:20:33.485Z,98549.38
2023-12-01T05:23:09.102Z,98559.72
2023-12-01T05:25:36.628Z,98579.25
2023-12-01T05:28:04.771Z,98571.56
2023-12-01T05:30:34.535Z,98580.81
2023-12-01T05:33:01.881Z,98571.34
2023-12-01T05:35:28.927Z,98571.44
2023-12-01T05:37:57.389Z,98575.69
2023-12-01T05:40:32.381Z,98568.25
2023-12-01T05:42:59.662Z,98584.44
2023-12-01T05:45:28.277Z,98578.56
2023-12-01T05:47:56.695Z,98566.66
2023-12-01T05:50:24.306Z,98569.34
2023-12-01T05:52:52.827Z,98561.75
2023-12-01T05:55:23.738Z,98580.53
2023-12-01T05:57:52.936Z,98580.59
2023-12-01T06:00:24.427Z,98591.56
2023-12-01T06:02:52.559Z,98591.75
2023-12-01T06:05:21.828Z,98590.75
2023-12-01T06:07:53.400Z,98581.22
2023-12-01T06:10:20.162Z,98589.84
2023-12-01T06:12:46.801Z,98584.88
2023-12-01T06:15:15.097Z,98589.03
2023-12-01T06:17:44.923Z,98589.84
2023-12-01T06:20:19.764Z,98583.91
2023-12-01T06:22:50.698Z,98599.38
2023-12-01T06:25:19.578Z,98606.28
2023-12-01T06:27:46.586Z,98593.50
2023-12-01T06:30:14.647Z,98592.47
2023-12-01T06:32:46.027Z,98596.56
2023-12-01T06:35:17.481Z,98601.72
2023-12-01T06:37:47.642Z,98596.81
2023-12-01T06:40:17.619Z,98601.16
2023-12-01T06:42:56.930Z,98601.97
2023-12-01T06:45:29.495Z,98596.97
2023-12-01T06:48:00.262Z,98588.50
2023-12-01T06:50:28.128Z,98584.22
2023-12-01T06:52:55.127Z,98599.41
2023-12-01T06:56:03.958Z,98601.03
2023-12-01T06:58:30.478Z,98599.22
2023-12-01T07:00:57.571Z,98600.38
2023-12-01T07:03:24.164Z,98600.28
2023-12-01T07:05:53.171Z,98604.53
2023-12-01T07:08:20.605Z,98604.34
2023-12-01T07:10:47.116Z,98617.28
2023-12-01T07:13:14.113Z,98615.53
2023-12-01T07:15:40.826Z,98646.16
2023-12-01T07:18:08.067Z,98623.25
2023-12-01T07:20:35.022Z,98616.47
2023-12-01T07:23:04.758Z,98646.41
2023-12-01T07:25:33.343Z,98609.78
2023-12-01T07:28:02.463Z,98614.97
2023-12-01T07:30:29.582Z,98612.47
2023-12-01T07:32:57.927Z,98591.25
2023-12-01T07:35:24.726Z,98604.06
2023-12-01T07:37:54.155Z,98609.16
2023-12-01T07:40:21.625Z,98613.50
2023-12-01T07:42:49.532Z,98622.09
2023-12-01T07:45:18.861Z,98612.84
2023-12-01T07:47:49.879Z,98602.53
2023-12-01T07:50:18.178Z,98607.59
2023-12-01T07:52:45.533Z,98610.69
2023-12-01T07:55:12.716Z,98632.22
2023-12-01T07:57:39.979Z,98631.53
2023-12-01T08:00:17.740Z,98622.25
2023-12-01T08:02:46.040Z,98625.78
2023-12-01T08:05:16.051Z,98630.97
2023-12-01T08:07:47.223Z,98644.56
2023-12-01T08:10:16.824Z,98646.41
2023-12-01T08:12:44.491Z,98656.72
2023-12-01T08:15:11.435Z,98621.78
2023-12-01T08:17:38.504Z,98643.97
2023-12-01T08:20:06.671Z,98632.91
2023-12-01T08:22:34.030Z,98614.38
2023-12-01T08:25:01.259Z,98631.38
2023-12-01T08:27:28.026Z,98631.41
2023-12-01T08:29:54.639Z,98640.84
2023-12-01T08:32:21.226Z,98638.34
2023-12-01T08:34:47.811Z,98625.69
2023-12-01T08:37:21.252Z,98633.47
2023-12-01T08:39:49.405Z,98648.81
2023-12-01T08:42:16.123Z,98648.09
2023-12-01T08:44:43.937Z,98633.69
2023-12-01T08:47:11.168Z,98630.31
2023-12-01T08:49:37.767Z,98637.25
2023-12-01T08:52:04.537Z,98637.13
2023-12-01T08:54:31.392Z,98635.31
2023-12-01T08:57:00.083Z,98632.81
2023-12-01T08:59:28.903Z,98643.00
2023-12-01T09:01:55.782Z,98658.34
2023-12-01T09:04:22.530Z,98643.88
2023-12-01T09:06:49.127Z,98659.97
2023-12-01T09:09:15.679Z,98659.94
2023-12-01T09:11:42.371Z,98655.59
2023-12-01T09:14:09.085Z,98651.34
2023-12-01T09:16:35.681Z,98646.16
2023-12-01T09:19:04.136Z,98647.63
2023-12-01T09:21:31.730Z,98650.31
2023-12-01T09:23:58.356Z,98647.66
2023-12-01T09:26:25.232Z,98643.59
2023-12-01T09:28:52.288Z,98643.53
2023-12-01T09:31:18.959Z,98633.19
2023-12-01T09:33:46.832Z,98635.75
2023-12-01T09:36:13.928Z,98623.69
2023-12-01T09:38:40.520Z,98632.19
2023-12-01T09:41:07.461Z,98639.84
2023-12-01T09:43:34.053Z,98640.53
2023-12-01T09:46:02.595Z,98637.28
2023-12-01T09:48:35.267Z,98609.91
2023-12-01T09:51:02.390Z,98596.34
2023-12-01T09:53:30.638Z,98579.22
2023-12-01T09:55:58.024Z,98585.28
2023-12-01T09:58:27.769Z,98597.44
2023-12-01T10:00:54.418Z,98611.06
2023-12-01T10:03:21.001Z,98599.31
2023-12-01T10:05:47.647Z,98603.56
2023-12-01T10:08:14.252Z,98611.38
2023-12-01T10:10:41.797Z,98601.00
2023-12-01T10:13:09.126Z,98600.03
2023-12-01T10:15:39.868Z,98582.88
2023-12-01T10:18:20.722Z,98587.19
2023-12-01T10:21:04.026Z,98576.69
2023-12-01T10:23:31.825Z,98575.63
2023-12-01T10:25:58.779Z,98575.66
2023-12-01T10:28:38.691Z,98575.63
2023-12-01T10:31:05.463Z,98562.91
2023-12-01T10:33:32.888Z,98566.28
2023-12-01T10:36:02.689Z,98582.34
2023-12-01T10:38:34.309Z,98572.81
2023-12-01T10:41:02.276Z,98568.28
2023-12-01T10:43:28.924Z,98560.00
2023-12-01T10:46:00.895Z,98569.34
2023-12-01T10:48:30.665Z,98567.72
2023-12-01T10:50:57.796Z,98560.00
2023-12-01T10:53:27.760Z,98567.94
2023-12-01T10:55:56.006Z,98565.47
2023-12-01T10:58:24.469Z,98573.34
2023-12-01T11:00:53.505Z,98559.84
2023-12-01T11:03:24.259Z,98551.44
2023-12-01T11:05:56.490Z,98542.13
2023-12-01T11:08:39.929Z,98538.44
2023-12-01T11:11:08.855Z,98533.41
2023-12-01T11:13:48.309Z,98535.13
2023-12-01T11:16:15.232Z,98545.41
2023-12-01T11:18:45.669Z,98538.81
2023-12-01T11:21:12.438Z,98531.00
2023-12-01T11:23:39.143Z,98530.16
2023-12-01T11:26:09.993Z,98546.50
2023-12-01T11:28:42.806Z,98536.41
2023-12-01T11:31:10.454Z,98534.91
2023-12-01T11:33:41.268Z,98523.84
2023-12-01T11:36:20.780Z,98537.59
2023-12-01T11:39:15.136Z,98548.72
2023-12-01T11:41:50.979Z,98543.69
2023-12-01T11:44:31.265Z,98544.53
2023-12-01T11:47:00.479Z,98528.31
2023-12-01T11:49:34.409Z,98534.13
2023-12-01T11:52:06.214Z,98519.75
2023-12-01T11:54:37.514Z,98524.28
2023-12-01T11:57:11.809Z,98524.50
2023-12-01T11:59:38.620Z,98530.53
2023-12-01T12:02:06.338Z,98516.88
2023-12-01T12:04:34.112Z,98516.22
2023-12-01T12:07:01.963Z,98513.53
2023-12-01T12:09:36.575Z,98521.25
2023-12-01T12:12:06.589Z,98523.06
2023-12-01T12:14:37.491Z,98522.94
2023-12-01T12:17:04.852Z,98515.41
2023-12-01T12:19:42.271Z,98504.28
2023-12-01T12:22:09.632Z,98503.72
2023-12-01T12:24:36.409Z,98501.09
2023-12-01T12:27:03.169Z,98500.06
2023-12-01T12:29:29.744Z,98490.13
2023-12-01T12:31:57.567Z,98493.41
2023-12-01T12:34:25.660Z,98506.28
2023-12-01T12:36:52.537Z,98508.25
2023-12-01T12:39:24.481Z,98503.09
2023-12-01T12:41:54.668Z,98503.16
2023-12-01T12:44:21.826Z,98500.84
2023-12-01T12:47:02.081Z,98501.63
2023-12-01T12:49:31.289Z,98499.16
2023-12-01T12:52:00.178Z,98503.53
2023-12-01T12:54:27.054Z,98501.72
2023-12-01T12:56:53.682Z,98514.41
2023-12-01T12:59:20.479Z,98486.19
2023-12-01T13:01:47.469Z,98487.81
2023-12-01T13:04:14.258Z,98498.13
2023-12-01T13:06:48.699Z,98490.06
2023-12-01T13:09:17.322Z,98483.94
2023-12-01T13:11:44.714Z,98485.75
2023-12-01T13:14:13.807Z,98484.22
2023-12-01T13:16:51.823Z,98475.78
2023-12-01T13:19:22.884Z,98488.47
2023-12-01T13:21:53.045Z,98491.88
2023-12-01T13:24:22.361Z,98487.56
2023-12-01T13:26:49.341Z,98498.75
2023-12-01T13:29:16.017Z,98494.41
2023-12-01T13:31:42.860Z,98506.44
2023-12-01T13:34:09.737Z,98505.53
2023-12-01T13:36:36.502Z,98508.22
2023-12-01T13:39:04.430Z,98511.41
2023-12-01T13:41:31.852Z,98507.19
2023-12-01T13:43:58.446Z,98496.94
2023-12-01T13:46:24.999Z,98491.91
2023-12-01T13:48:52.175Z,98486.00
2023-12-01T13:51:18.991Z,98497.63
2023-12-01T13:53:45.560Z,98510.88
2023-12-01T13:56:12.814Z,98516.88
2023-12-01T13:58:44.644Z,98525.56
2023-12-01T14:01:13.111Z,98523.88
2023-12-01T14:03:40.332Z,98527.47
2023-12-01T14:06:08.158Z,98533.34
2023-12-01T14:08:35.962Z,98536.81
2023-12-01T14:11:03.945Z,98535.97
2023-12-01T14:13:30.796Z,98539.41
2023-12-01T14:15:57.373Z,98541.19
2023-12-01T14:18:24.218Z,98532.03
2023-12-01T14:20:50.966Z,98540.31
2023-12-01T14:23:17.531Z,98532.91
2023-12-01T14:25:44.054Z,98545.03
2023-12-01T14:28:10.606Z,98544.94
2023-12-01T14:30:37.136Z,98556.94
2023-12-01T14:33:03.811Z,98544.97
2023-12-01T14:35:30.606Z,98533.94
2023-12-01T14:37:57.246Z,98533.19
2023-12-01T14:40:23.946Z,98551.09
2023-12-01T14:42:50.644Z,98543.53
2023-12-01T14:45:17.198Z,98545.38
2023-12-01T14:47:43.899Z,98523.97
2023-12-01T14:50:10.577Z,98531.66
2023-12-01T14:52:37.140Z,98538.53
2023-12-01T14:55:04.578Z,98529.25
2023-12-01T14:57:31.003Z,98529.34
2023-12-01T14:59:57.615Z,98549.53
2023-12-01T15:02:24.576Z,98532.56
2023-12-01T15:04:51.187Z,98541.13
2023-12-01T15:07:18.083Z,98549.69
2023-12-01T15:09:44.609Z,98510.41
2023-12-01T15:12:11.446Z,98523.13
2023-12-01T15:14:37.939Z,98530.88
2023-12-01T15:17:04.537Z,98530.03
2023-12-01T15:19:33.475Z,98553.78
2023-12-01T15:22:01.027Z,98552.06
2023-12-01T15:24:27.664Z,98554.63
2023-12-01T15:26:57.483Z,98554.56
2023-12-01T15:29:24.871Z,98556.06
2023-12-01T15:31:51.606Z,98550.16
2023-12-01T15:34:18.232Z,98544.06
2023-12-01T15:36:44.827Z,98533.06
2023-12-01T15:39:15.000Z,98522.91
2023-12-01T15:41:41.943Z,98532.19
2023-12-01T15:44:08.575Z,98527.28
2023-12-01T15:46:35.595Z,98532.28
2023-12-01T15:49:02.254Z,98510.63
2023-12-01T15:51:28.801Z,98499.63
2023-12-01T15:53:55.734Z,98500.47
2023-12-01T15:56:22.322Z,98499.63
2023-12-01T15:58:49.135Z,98514.78
2023-12-01T16:01:16.401Z,98504.66
2023-12-01T16:03:43.123Z,98509.44
2023-12-01T16:06:10.120Z,98490.94
2023-12-01T16:08:36.626Z,98482.38
2023-12-01T16:11:04.114Z,98490.94
2023-12-01T16:13:30.561Z,98490.00
2023-12-01T16:15:57.116Z,98499.44
2023-12-01T16:18:25.264Z,98495.22
2023-12-01T16:20:53.494Z,98499.50
2023-12-01T16:23:20.970Z,98488.47
2023-12-01T16:25:48.585Z,98491.84
2023-12-01T16:28:15.323Z,98498.59
2023-12-01T16:30:42.527Z,98490.13
2023-12-01T16:33:09.727Z,98486.53
2023-12-01T16:35:36.363Z,98485.84
2023-12-01T16:38:06.651Z,98487.50
2023-12-01T16:40:33.421Z,98494.31
2023-12-01T16:42:59.985Z,98496.06
2023-12-01T16:45:26.635Z,98485.84
2023-12-01T16:47:53.710Z,98486.34
2023-12-01T16:50:20.388Z,98494.25
2023-12-01T16:52:46.885Z,98482.41
2023-12-01T16:55:16.066Z,98463.66
2023-12-01T16:57:42.810Z,98463.66
2023-12-01T17:00:10.022Z,98465.53
2023-12-01T17:02:36.758Z,98472.31
2023-12-01T17:05:03.950Z,98462.06
2023-12-01T17:07:30.567Z,98465.31
2023-12-01T17:09:57.149Z,98480.81
2023-12-01T17:12:23.761Z,98459.56
2023-12-01T17:14:50.412Z,98467.22
2023-12-01T17:17:17.484Z,98477.44
2023-12-01T17:19:44.051Z,98486.03
2023-12-01T17:22:12.363Z,98484.31
2023-12-01T17:24:44.752Z,98493.72
2023-12-01T17:27:13.005Z,98499.81
2023-12-01T17:29:41.341Z,98493.81
2023-12-01T17:32:08.736Z,98499.84
2023-12-01T17:34:35.886Z,98506.63
2023-12-01T17:37:03.422Z,98504.13
2023-12-01T17:39:31.096Z,98488.81
2023-12-01T17:41:57.864Z,98490.59
2023-12-01T17:44:24.355Z,98482.06
2023-12-01T17:46:51.292Z,98490.59
2023-12-01T17:49:17.828Z,98472.59
2023-12-01T17:51:44.350Z,98456.25
2023-12-01T17:54:10.939Z,98477.53
2023-12-01T17:56:37.772Z,98470.00
2023-12-01T17:59:04.384Z,98475.00
2023-12-01T18:01:35.140Z,98470.94
2023-12-01T18:04:02.292Z,98474.41
2023-12-01T18:06:28.897Z,98471.84
2023-12-01T18:08:55.513Z,98448.78
2023-12-01T18:11:24.322Z,98452.91
2023-12-01T18:13:54.783Z,98442.59
2023-12-01T18:16:22.069Z,98448.53
2023-12-01T18:18:48.870Z,98439.06
2023-12-01T18:21:15.543Z,98444.09
2023-12-01T18:23:42.210Z,98443.34
2023-12-01T18:26:08.790Z,98452.75
2023-12-01T18:28:35.556Z,98465.72
2023-12-01T18:31:02.098Z,98462.19
2023-12-01T18:33:28.671Z,98462.09
2023-12-01T18:35:55.527Z,98473.28
2023-12-01T18:38:22.206Z,98479.25
2023-12-01T18:40:48.807Z,98468.28
2023-12-01T18:43:15.372Z,98464.13
2023-12-01T18:45:42.465Z,98473.50
2023-12-01T18:48:09.926Z,98461.69
2023-12-01T18:50:36.592Z,98455.69
2023-12-01T18:53:03.269Z,98455.75
2023-12-01T18:55:29.988Z,98454.03
2023-12-01T18:57:57.049Z,98453.94
2023-12-01T19:00:23.829Z,98462.38
2023-12-01T19:02:50.680Z,98447.03
2023-12-01T19:05:18.020Z,98448.03
2023-12-01T19:07:45.360Z,98457.50
2023-12-01T19:10:12.654Z,98451.53
2023-12-01T19:12:39.225Z,98465.28
2023-12-01T19:15:06.544Z,98455.84
2023-12-01T19:17:33.122Z,98443.88
2023-12-01T19:19:59.654Z,98444.88
2023-12-01T19:22:26.191Z,98443.22
2023-12-01T19:24:52.701Z,98445.38
2023-12-01T19:27:19.278Z,98447.03
2023-12-01T19:29:45.930Z,98446.66
2023-12-01T19:32:12.521Z,98439.19
2023-12-01T19:34:39.663Z,98447.13
2023-12-01T19:37:06.192Z,98445.63
2023-12-01T19:39:34.568Z,98443.59
2023-12-01T19:42:01.173Z,98447.97
2023-12-01T19:44:27.671Z,98449.75
2023-12-01T19:46:54.143Z,98449.84
2023-12-01T19:49:20.747Z,98451.56
2023-12-01T19:51:47.900Z,98446.34
2023-12-01T19:54:14.790Z,98446.25
2023-12-01T19:56:43.519Z,98440.41
2023-12-01T19:59:10.236Z,98446.44
2023-12-01T20:01:36.767Z,98435.31
2023-12-01T20:04:03.364Z,98443.09
2023-12-01T20:06:30.052Z,98438.88
2023-12-01T20:08:56.821Z,98436.13
2023-12-01T20:11:23.349Z,98441.00
2023-12-01T20:13:49.860Z,98428.31
2023-12-01T20:16:17.823Z,98428.53
2023-12-01T20:18:44.624Z,98426.00
2023-12-01T20:21:11.326Z,98431.03
2023-12-01T20:23:38.456Z,98429.38
2023-12-01T20:26:04.992Z,98425.28
2023-12-01T20:28:31.549Z,98428.47
2023-12-01T20:30:58.012Z,98436.16
2023-12-01T20:33:24.628Z,98434.41
2023-12-01T20:35:51.233Z,98436.81
2023-12-01T20:38:17.734Z,98437.03
2023-12-01T20:40:44.270Z,98437.88
2023-12-01T20:43:10.796Z,98435.16
2023-12-01T20:45:37.933Z,98432.81
2023-12-01T20:48:04.752Z,98431.94
2023-12-01T20:50:31.381Z,98421.72
2023-12-01T20:52:57.942Z,98418.00
2023-12-01T20:55:24.650Z,98417.00
2023-12-01T20:57:51.971Z,98413.91
2023-12-01T21:00:19.001Z,98418.09
2023-12-01T21:02:45.604Z,98409.59
2023-12-01T21:05:12.311Z,98418.00
2023-12-01T21:07:39.095Z,98406.88
2023-12-01T21:10:06.282Z,98412.13
2023-12-01T21:12:32.827Z,98413.81
2023-12-01T21:14:59.467Z,98419.00
2023-12-01T21:17:25.992Z,98422.41
2023-12-01T21:19:52.496Z,98417.00
2023-12-01T21:22:19.062Z,98411.25
2023-12-01T21:24:45.566Z,98398.47
2023-12-01T21:27:12.066Z,98398.50
2023-12-01T21:29:38.544Z,98389.13
2023-12-01T21:32:05.165Z,98384.78
2023-12-01T21:34:33.918Z,98396.06
2023-12-01T21:37:00.540Z,98398.47
2023-12-01T21:39:27.155Z,98402.75
2023-12-01T21:41:53.677Z,98397.53
2023-12-01T21:44:20.266Z,98404.34
2023-12-01T21:46:46.815Z,98397.53
2023-12-01T21:49:13.560Z,98401.00
2023-12-01T21:51:40.176Z,98394.84
2023-12-01T21:54:07.018Z,98411.25
2023-12-01T21:56:33.671Z,98399.47
2023-12-01T21:59:00.194Z,98397.69
2023-12-01T22:01:26.654Z,98398.56
2023-12-01T22:03:53.223Z,98404.50
2023-12-01T22:06:19.885Z,98390.63
2023-12-01T22:08:46.416Z,98396.59
2023-12-01T22:11:12.999Z,98382.84
2023-12-01T22:13:39.862Z,98390.78
2023-12-01T22:16:06.814Z,98373.91
2023-12-01T22:18:33.469Z,98389.88
2023-12-01T22:21:02.247Z,98380.59
2023-12-01T22:23:28.793Z,98395.50
2023-12-01T22:25:55.292Z,98380.03
2023-12-01T22:28:21.839Z,98378.41
2023-12-01T22:30:48.347Z,98375.81
2023-12-01T22:33:14.979Z,98385.44
2023-12-01T22:35:41.540Z,98382.75
2023-12-01T22:38:08.573Z,98374.34
2023-12-01T22:40:35.121Z,98365.75
2023-12-01T22:43:01.627Z,98370.69
2023-12-01T22:45:28.116Z,98363.81
2023-12-01T22:47:54.898Z,98356.16
2023-12-01T22:50:26.849Z,98364.59
2023-12-01T22:52:53.648Z,98356.06
2023-12-01T22:55:20.180Z,98364.66
2023-12-01T22:57:46.734Z,98358.81
2023-12-01T23:00:27.433Z,98356.19
2023-12-01T23:02:56.467Z,98348.34
2023-12-01T23:05:23.857Z,98344.91
2023-12-01T23:07:50.852Z,98344.13
2023-12-01T23:10:17.646Z,98350.81
2023-12-01T23:12:44.443Z,98350.81
2023-12-01T23:15:13.005Z,98351.81
2023-12-01T23:17:40.823Z,98346.97
2023-12-01T23:20:08.047Z,98346.81
2023-12-01T23:22:35.663Z,98341.53
2023-12-01T23:25:05.056Z,98347.56
2023-12-01T23:27:35.954Z,98338.28
2023-12-01T23:30:03.352Z,98339.34
2023-12-01T23:32:29.906Z,98339.41
2023-12-01T23:34:56.407Z,98338.63
2023-12-01T23:37:22.879Z,98339.53
2023-12-01T23:39:50.507Z,98329.13
2023-12-01T23:42:17.059Z,98328.28
2023-12-01T23:44:43.602Z,98320.63
2023-12-01T23:47:10.073Z,98318.00
2023-12-01T23:49:36.678Z,98307.78
2023-12-01T23:52:03.917Z,98323.16
2023-12-01T23:54:30.546Z,98300.28
2023-12-01T23:56:57.195Z,98306.22
2023-12-01T23:59:24.192Z,98314.69
